Teniente FAP Jaime A De Montreuil Morales Airport
SPEO : now visible

Airfield :











YOU CAN JOIN US ON...

 
LOGIN :

Register | Disclaimer

   EN    FR    IT 

 









Legend :    VFR   Marginal VFR   IFR   Intensive IFR   Very Intensive IFR
Visi :
Ceiling :
>= 8 km
>= 3000ft
5 to 8 km
1000 to 3000 ft
1500m to 5 km
500 to 1000 ft
800 to 1500m
200 to 500 ft
< 800m
< 200 ft
Symbols :   Thunderstorms  Fog  Heavy snow  Heavy precipitations  Wind > 20 kt






- Airport Elevation : 69 ft
- IATA code : CHM


SPEO - Teniente FAP Jaime A De Montreuil Morales

METAR N/A
TAF SPEO
Valid from the 02 at 12:00 until the 03 at 12:00 UTC


021100Z 0212/0312 19005KT 8000 SCT014 SCT100 TX23/0219Z TN16/0311Z
TEMPO 0212/0214 4000 BR BKN005
BECMG 0214/0217 19018KT NSC
BECMG 0301/0303 17006KT FEW007 SCT020
SPIM FIR / South America



MET'MAP, your aeronautical weather chart ! - Copyright ORBIFLY December 2007 - Disclaimer

ORBIFLY MET'MAP TEAM :

Programming & Development : Alexandra Zaïnal
Concept & original design : Baudouin d'Aumeries
Assistance for programming : Marc-Olivier Méhu
Technical & hardware support : Manuel Goepfert

Contact : metmap@orbifly.com




SOURCES & CREDITS :

   NOAA       Earth
Advisory